McFarland, CA

7:04 AM PST on March 03, 2015 (GMT -0800)
APRSWXNET McFarland CA US | Change Station
CLOSE
Current Station
Personal Weather Station
Location: McFarland, CA
Elevation: 351 ft
Nearby Weather Stations

Elev 351 ft 35.68 °N, 119.23 °W | Updated 39 minutes ago

Clear
Clear
41 °F
Feels Like 41 °F
N
0
Wind Variable Wind from WSW
Gusts 2.0 mph

Today
High -- | Low -- °F
--% Chance of Precip.
Yesterday
High -- | Low -- °F
Precip. -- in
6:24 AM 5:53 PM
Waxing Gibbous, 96% visible
Pressure 29.99 in
Visibility 9.0 miles
Clouds Clear
Windchill 41 °F
Dew Point 40 °F
Humidity 95%
Rainfall 0.06 in
Snow Depth Not available.
UV 0 out of 12
Pollen 8.60 out of 12
Air Quality Not available.
Flu Activity Not available.
METAR KBFL 031454Z 06003KT 9SM CLR 07/05 A2999 RMK AO2 SLP155 T00720050 53008

More Conditions Fewer Conditions

Pressure 29.99 in
Visibility 9.0 miles
Clouds Clear
Windchill 41 °F
Dew Point 40 °F
Humidity 95%
Rainfall 0.06 in
Snow Depth Not available.
UV 0 out of 12
Pollen 8.60 out of 12
Air Quality Not available.
Flu Activity Not available.
METAR KBFL 031454Z 06003KT 9SM CLR 07/05 A2999 RMK AO2 SLP155 T00720050 53008

More Conditions Fewer Conditions

10-Day Weather Forecast

Almanac

Astronomy

Mar. 03, 2015 Rise Set
Actual Time
Civil Twilight
Nautical Twilight
Astronomical Twilight
Moon
Length of Visible Light
Length of Day
Tomorrow will be .
, % of the Moon is Illuminated

Today's Extremes

State Highs State Lows

Community

WunderPhotos

Upload Photos

1,802,133 photos uploaded!

WunderBlogs® & News

Nearby

Air Quality

  Air Quality AQ Index Pollutant
Not available.

Snow Depth

Station Depth Elevation

Earthquake Activity

City Distance Mag. Time & Date
Minimum magnitude displayed is 2.5.

Coastal Water Temperatures

Place Temperature

Nearby Weather Stations